sensor_id;sensor_type;location;lat;lon;timestamp;temperature;humidity
51500;DHT22;39101;53.478;6.158;2023-05-06T00:00:04;12.20;99.90
51500;DHT22;39101;53.478;6.158;2023-05-06T00:02:33;12.00;99.90
51500;DHT22;39101;53.478;6.158;2023-05-06T00:04:59;12.00;99.90
51500;DHT22;39101;53.478;6.158;2023-05-06T00:07:25;12.10;99.90
51500;DHT22;39101;53.478;6.158;2023-05-06T00:09:50;12.20;99.90
51500;DHT22;39101;53.478;6.158;2023-05-06T00:12:16;12.10;99.90
51500;DHT22;39101;53.478;6.158;2023-05-06T00:14:42;12.20;99.90
51500;DHT22;39101;53.478;6.158;2023-05-06T00:17:07;12.20;99.90
51500;DHT22;39101;53.478;6.158;2023-05-06T00:19:33;12.20;99.90
51500;DHT22;39101;53.478;6.158;2023-05-06T00:21:59;12.10;99.90
51500;DHT22;39101;53.478;6.158;2023-05-06T00:24:25;12.10;99.90
51500;DHT22;39101;53.478;6.158;2023-05-06T00:26:51;12.00;99.90
51500;DHT22;39101;53.478;6.158;2023-05-06T00:29:17;12.00;99.90
51500;DHT22;39101;53.478;6.158;2023-05-06T00:31:43;11.90;99.90
51500;DHT22;39101;53.478;6.158;2023-05-06T00:34:09;11.90;99.90
51500;DHT22;39101;53.478;6.158;2023-05-06T00:36:36;11.90;99.90
51500;DHT22;39101;53.478;6.158;2023-05-06T00:39:02;12.00;99.90
51500;DHT22;39101;53.478;6.158;2023-05-06T00:41:31;12.10;99.90
51500;DHT22;39101;53.478;6.158;2023-05-06T00:43:57;11.90;99.90
51500;DHT22;39101;53.478;6.158;2023-05-06T00:46:23;11.90;99.90
51500;DHT22;39101;53.478;6.158;2023-05-06T00:48:49;11.90;99.90
51500;DHT22;39101;53.478;6.158;2023-05-06T00:51:15;11.80;99.90
51500;DHT22;39101;53.478;6.158;2023-05-06T00:53:41;11.70;99.90
51500;DHT22;39101;53.478;6.158;2023-05-06T00:56:06;11.90;99.90
51500;DHT22;39101;53.478;6.158;2023-05-06T00:58:33;11.70;99.90
51500;DHT22;39101;53.478;6.158;2023-05-06T01:00:58;11.90;99.90
51500;DHT22;39101;53.478;6.158;2023-05-06T01:03:24;11.70;99.90
51500;DHT22;39101;53.478;6.158;2023-05-06T01:06:03;11.80;99.90
51500;DHT22;39101;53.478;6.158;2023-05-06T01:08:56;11.60;99.90
51500;DHT22;39101;53.478;6.158;2023-05-06T01:16:47;11.70;99.90
51500;DHT22;39101;53.478;6.158;2023-05-06T01:19:37;11.60;99.90
51500;DHT22;39101;53.478;6.158;2023-05-06T01:22:07;11.50;99.90
51500;DHT22;39101;53.478;6.158;2023-05-06T01:24:41;11.60;99.90
51500;DHT22;39101;53.478;6.158;2023-05-06T01:27:08;11.50;99.90
51500;DHT22;39101;53.478;6.158;2023-05-06T01:29:36;11.60;99.90
51500;DHT22;39101;53.478;6.158;2023-05-06T01:32:33;11.40;99.90
51500;DHT22;39101;53.478;6.158;2023-05-06T01:35:34;11.50;99.90
51500;DHT22;39101;53.478;6.158;2023-05-06T01:38:21;11.60;99.90
51500;DHT22;39101;53.478;6.158;2023-05-06T01:40:50;11.30;99.90
51500;DHT22;39101;53.478;6.158;2023-05-06T01:43:23;11.50;99.90
51500;DHT22;39101;53.478;6.158;2023-05-06T01:45:48;11.40;99.90
51500;DHT22;39101;53.478;6.158;2023-05-06T01:48:27;11.50;99.90
51500;DHT22;39101;53.478;6.158;2023-05-06T01:50:53;11.40;99.90
51500;DHT22;39101;53.478;6.158;2023-05-06T01:53:19;11.40;99.90
51500;DHT22;39101;53.478;6.158;2023-05-06T01:55:45;11.60;99.90
51500;DHT22;39101;53.478;6.158;2023-05-06T01:58:12;11.50;99.90
51500;DHT22;39101;53.478;6.158;2023-05-06T02:00:38;11.60;99.90
51500;DHT22;39101;53.478;6.158;2023-05-06T02:03:04;11.40;99.90
51500;DHT22;39101;53.478;6.158;2023-05-06T02:05:30;11.50;99.90
51500;DHT22;39101;53.478;6.158;2023-05-06T02:07:55;11.50;99.90
51500;DHT22;39101;53.478;6.158;2023-05-06T02:10:21;11.50;99.90
51500;DHT22;39101;53.478;6.158;2023-05-06T02:12:47;11.40;99.90
51500;DHT22;39101;53.478;6.158;2023-05-06T02:15:13;11.40;99.90
51500;DHT22;39101;53.478;6.158;2023-05-06T02:17:38;11.50;99.90
51500;DHT22;39101;53.478;6.158;2023-05-06T02:20:05;11.40;99.90
51500;DHT22;39101;53.478;6.158;2023-05-06T02:22:32;11.40;99.90
51500;DHT22;39101;53.478;6.158;2023-05-06T02:24:58;11.40;99.90
51500;DHT22;39101;53.478;6.158;2023-05-06T02:27:23;11.50;99.90
51500;DHT22;39101;53.478;6.158;2023-05-06T02:29:49;11.40;99.90
51500;DHT22;39101;53.478;6.158;2023-05-06T02:32:14;11.60;99.90
51500;DHT22;39101;53.478;6.158;2023-05-06T02:34:40;11.70;99.90
51500;DHT22;39101;53.478;6.158;2023-05-06T02:37:06;11.50;99.90
51500;DHT22;39101;53.478;6.158;2023-05-06T02:39:31;11.40;99.90
51500;DHT22;39101;53.478;6.158;2023-05-06T02:41:57;11.60;99.90
51500;DHT22;39101;53.478;6.158;2023-05-06T02:44:23;11.50;99.90
51500;DHT22;39101;53.478;6.158;2023-05-06T02:46:49;11.70;99.90
51500;DHT22;39101;53.478;6.158;2023-05-06T02:49:15;11.70;99.90
51500;DHT22;39101;53.478;6.158;2023-05-06T02:51:41;11.60;99.90
51500;DHT22;39101;53.478;6.158;2023-05-06T02:54:06;11.70;99.90
51500;DHT22;39101;53.478;6.158;2023-05-06T02:56:32;11.50;99.90
51500;DHT22;39101;53.478;6.158;2023-05-06T02:58:58;11.70;99.90
51500;DHT22;39101;53.478;6.158;2023-05-06T03:01:23;11.70;99.90
51500;DHT22;39101;53.478;6.158;2023-05-06T03:03:49;11.60;99.90
51500;DHT22;39101;53.478;6.158;2023-05-06T03:06:15;11.40;99.90
51500;DHT22;39101;53.478;6.158;2023-05-06T03:08:40;11.60;99.90
51500;DHT22;39101;53.478;6.158;2023-05-06T03:11:06;11.40;99.90
51500;DHT22;39101;53.478;6.158;2023-05-06T03:13:32;11.60;99.90
51500;DHT22;39101;53.478;6.158;2023-05-06T03:15:57;11.60;99.90
51500;DHT22;39101;53.478;6.158;2023-05-06T03:18:23;11.40;99.90
51500;DHT22;39101;53.478;6.158;2023-05-06T03:20:49;11.40;99.90
51500;DHT22;39101;53.478;6.158;2023-05-06T03:23:14;11.60;99.90
51500;DHT22;39101;53.478;6.158;2023-05-06T03:25:40;11.60;99.90
51500;DHT22;39101;53.478;6.158;2023-05-06T03:28:06;11.50;99.90
51500;DHT22;39101;53.478;6.158;2023-05-06T03:30:32;11.60;99.90
51500;DHT22;39101;53.478;6.158;2023-05-06T03:33:00;11.60;99.90
51500;DHT22;39101;53.478;6.158;2023-05-06T03:35:26;11.60;99.90
51500;DHT22;39101;53.478;6.158;2023-05-06T03:37:51;11.40;99.90
51500;DHT22;39101;53.478;6.158;2023-05-06T03:40:17;11.50;99.90
51500;DHT22;39101;53.478;6.158;2023-05-06T03:42:44;11.60;99.90
51500;DHT22;39101;53.478;6.158;2023-05-06T03:45:09;11.50;99.90
51500;DHT22;39101;53.478;6.158;2023-05-06T03:47:35;11.30;99.90
51500;DHT22;39101;53.478;6.158;2023-05-06T03:50:01;11.50;99.90
51500;DHT22;39101;53.478;6.158;2023-05-06T03:52:27;11.40;99.90
51500;DHT22;39101;53.478;6.158;2023-05-06T03:54:53;11.40;99.90
51500;DHT22;39101;53.478;6.158;2023-05-06T03:57:18;11.30;99.90
51500;DHT22;39101;53.478;6.158;2023-05-06T03:59:44;11.60;99.90
51500;DHT22;39101;53.478;6.158;2023-05-06T04:02:10;11.50;99.90
51500;DHT22;39101;53.478;6.158;2023-05-06T04:04:35;11.60;99.90
51500;DHT22;39101;53.478;6.158;2023-05-06T04:07:01;11.40;99.90
51500;DHT22;39101;53.478;6.158;2023-05-06T04:09:28;11.50;99.90
51500;DHT22;39101;53.478;6.158;2023-05-06T04:11:54;11.60;99.90
51500;DHT22;39101;53.478;6.158;2023-05-06T04:14:20;11.60;99.90
51500;DHT22;39101;53.478;6.158;2023-05-06T04:16:45;11.40;99.90
51500;DHT22;39101;53.478;6.158;2023-05-06T04:19:11;11.60;99.90
51500;DHT22;39101;53.478;6.158;2023-05-06T04:21:37;11.40;99.90
51500;DHT22;39101;53.478;6.158;2023-05-06T04:24:03;11.50;99.90
51500;DHT22;39101;53.478;6.158;2023-05-06T04:26:28;11.60;99.90
51500;DHT22;39101;53.478;6.158;2023-05-06T04:28:55;11.40;99.90
51500;DHT22;39101;53.478;6.158;2023-05-06T04:31:21;11.30;99.90
51500;DHT22;39101;53.478;6.158;2023-05-06T04:33:47;11.30;99.90
51500;DHT22;39101;53.478;6.158;2023-05-06T04:36:13;11.40;99.90
51500;DHT22;39101;53.478;6.158;2023-05-06T04:38:39;11.50;99.90
51500;DHT22;39101;53.478;6.158;2023-05-06T04:41:05;11.50;99.90
51500;DHT22;39101;53.478;6.158;2023-05-06T04:43:30;11.30;99.90
51500;DHT22;39101;53.478;6.158;2023-05-06T04:45:57;11.50;99.90
51500;DHT22;39101;53.478;6.158;2023-05-06T04:48:22;11.50;99.90
51500;DHT22;39101;53.478;6.158;2023-05-06T04:50:49;11.60;99.90
51500;DHT22;39101;53.478;6.158;2023-05-06T04:53:15;11.50;99.90
51500;DHT22;39101;53.478;6.158;2023-05-06T04:55:41;11.40;99.90
51500;DHT22;39101;53.478;6.158;2023-05-06T04:58:07;11.40;99.90
51500;DHT22;39101;53.478;6.158;2023-05-06T05:00:33;11.40;99.90
51500;DHT22;39101;53.478;6.158;2023-05-06T05:02:59;11.40;99.90
51500;DHT22;39101;53.478;6.158;2023-05-06T05:05:26;11.50;99.90
51500;DHT22;39101;53.478;6.158;2023-05-06T05:07:52;11.40;99.90
51500;DHT22;39101;53.478;6.158;2023-05-06T05:10:18;11.70;99.90
51500;DHT22;39101;53.478;6.158;2023-05-06T05:12:44;11.50;99.90
51500;DHT22;39101;53.478;6.158;2023-05-06T05:15:10;11.50;99.90
51500;DHT22;39101;53.478;6.158;2023-05-06T05:17:37;11.70;99.90
51500;DHT22;39101;53.478;6.158;2023-05-06T05:20:02;11.60;99.90
51500;DHT22;39101;53.478;6.158;2023-05-06T05:22:30;11.70;99.90
51500;DHT22;39101;53.478;6.158;2023-05-06T05:24:56;11.70;99.90
51500;DHT22;39101;53.478;6.158;2023-05-06T05:27:21;11.50;99.90
51500;DHT22;39101;53.478;6.158;2023-05-06T05:29:47;11.60;99.90
51500;DHT22;39101;53.478;6.158;2023-05-06T05:32:13;11.60;99.90
51500;DHT22;39101;53.478;6.158;2023-05-06T05:34:39;11.80;99.90
51500;DHT22;39101;53.478;6.158;2023-05-06T05:37:05;11.60;99.90
51500;DHT22;39101;53.478;6.158;2023-05-06T05:39:30;11.70;99.90
51500;DHT22;39101;53.478;6.158;2023-05-06T05:41:56;11.90;99.90
51500;DHT22;39101;53.478;6.158;2023-05-06T05:44:22;11.70;99.90
51500;DHT22;39101;53.478;6.158;2023-05-06T05:46:48;11.80;99.90
51500;DHT22;39101;53.478;6.158;2023-05-06T05:49:14;12.00;99.90
51500;DHT22;39101;53.478;6.158;2023-05-06T05:51:40;12.10;99.90
51500;DHT22;39101;53.478;6.158;2023-05-06T05:54:05;11.90;99.90
51500;DHT22;39101;53.478;6.158;2023-05-06T05:56:31;12.00;99.90
51500;DHT22;39101;53.478;6.158;2023-05-06T05:58:56;12.10;99.90
51500;DHT22;39101;53.478;6.158;2023-05-06T06:01:22;12.10;99.90
51500;DHT22;39101;53.478;6.158;2023-05-06T06:03:48;12.30;99.90
51500;DHT22;39101;53.478;6.158;2023-05-06T06:06:13;12.00;99.90
51500;DHT22;39101;53.478;6.158;2023-05-06T06:08:39;12.10;99.90
51500;DHT22;39101;53.478;6.158;2023-05-06T06:11:05;12.20;99.90
51500;DHT22;39101;53.478;6.158;2023-05-06T06:13:31;12.20;99.90
51500;DHT22;39101;53.478;6.158;2023-05-06T06:15:57;12.10;99.90
51500;DHT22;39101;53.478;6.158;2023-05-06T06:18:23;12.10;99.90
51500;DHT22;39101;53.478;6.158;2023-05-06T06:20:49;12.00;99.90
51500;DHT22;39101;53.478;6.158;2023-05-06T06:23:14;12.00;99.90
51500;DHT22;39101;53.478;6.158;2023-05-06T06:25:40;12.00;99.90
51500;DHT22;39101;53.478;6.158;2023-05-06T06:28:06;12.00;99.90
51500;DHT22;39101;53.478;6.158;2023-05-06T06:30:32;12.20;99.90
51500;DHT22;39101;53.478;6.158;2023-05-06T06:32:58;12.00;99.90
51500;DHT22;39101;53.478;6.158;2023-05-06T06:35:25;12.20;99.90
51500;DHT22;39101;53.478;6.158;2023-05-06T06:37:51;12.10;99.90
51500;DHT22;39101;53.478;6.158;2023-05-06T06:40:17;12.20;99.90
51500;DHT22;39101;53.478;6.158;2023-05-06T06:42:43;12.10;99.90
51500;DHT22;39101;53.478;6.158;2023-05-06T06:45:09;12.10;99.90
51500;DHT22;39101;53.478;6.158;2023-05-06T06:47:35;12.10;99.90
51500;DHT22;39101;53.478;6.158;2023-05-06T06:50:00;12.30;99.90
51500;DHT22;39101;53.478;6.158;2023-05-06T06:52:26;12.20;99.90
51500;DHT22;39101;53.478;6.158;2023-05-06T06:54:52;12.20;99.90
51500;DHT22;39101;53.478;6.158;2023-05-06T06:57:17;12.30;99.90
51500;DHT22;39101;53.478;6.158;2023-05-06T06:59:43;12.30;99.90
51500;DHT22;39101;53.478;6.158;2023-05-06T07:02:09;12.20;99.90
51500;DHT22;39101;53.478;6.158;2023-05-06T07:04:35;12.50;99.90
51500;DHT22;39101;53.478;6.158;2023-05-06T07:07:01;12.50;99.90
51500;DHT22;39101;53.478;6.158;2023-05-06T07:09:26;12.60;99.90
51500;DHT22;39101;53.478;6.158;2023-05-06T07:11:52;12.50;99.90
51500;DHT22;39101;53.478;6.158;2023-05-06T07:14:19;12.40;99.90
51500;DHT22;39101;53.478;6.158;2023-05-06T07:16:45;12.60;99.90
51500;DHT22;39101;53.478;6.158;2023-05-06T07:19:10;12.80;99.90
51500;DHT22;39101;53.478;6.158;2023-05-06T07:21:36;12.50;99.90
51500;DHT22;39101;53.478;6.158;2023-05-06T07:24:01;12.70;99.90
51500;DHT22;39101;53.478;6.158;2023-05-06T07:26:27;12.50;99.90
51500;DHT22;39101;53.478;6.158;2023-05-06T07:28:53;12.60;99.90
51500;DHT22;39101;53.478;6.158;2023-05-06T07:31:18;12.60;99.90
51500;DHT22;39101;53.478;6.158;2023-05-06T07:33:48;12.80;99.90
51500;DHT22;39101;53.478;6.158;2023-05-06T07:36:14;12.80;99.90
51500;DHT22;39101;53.478;6.158;2023-05-06T07:38:40;12.70;99.90
51500;DHT22;39101;53.478;6.158;2023-05-06T07:41:06;12.80;99.90
51500;DHT22;39101;53.478;6.158;2023-05-06T07:43:31;12.90;99.90
51500;DHT22;39101;53.478;6.158;2023-05-06T07:45:57;13.00;99.90
51500;DHT22;39101;53.478;6.158;2023-05-06T07:48:30;13.30;99.90
51500;DHT22;39101;53.478;6.158;2023-05-06T07:50:57;13.40;99.90
51500;DHT22;39101;53.478;6.158;2023-05-06T07:53:22;13.60;99.90
51500;DHT22;39101;53.478;6.158;2023-05-06T07:55:48;13.40;99.90
51500;DHT22;39101;53.478;6.158;2023-05-06T07:58:14;13.70;99.90
51500;DHT22;39101;53.478;6.158;2023-05-06T08:00:39;13.50;99.90
51500;DHT22;39101;53.478;6.158;2023-05-06T08:03:05;13.50;99.90
51500;DHT22;39101;53.478;6.158;2023-05-06T08:05:31;13.80;99.90
51500;DHT22;39101;53.478;6.158;2023-05-06T08:07:57;14.00;99.90
51500;DHT22;39101;53.478;6.158;2023-05-06T08:10:22;14.00;99.90
51500;DHT22;39101;53.478;6.158;2023-05-06T08:12:48;13.80;99.90
51500;DHT22;39101;53.478;6.158;2023-05-06T08:15:15;13.90;99.90
51500;DHT22;39101;53.478;6.158;2023-05-06T08:17:41;13.80;99.90
51500;DHT22;39101;53.478;6.158;2023-05-06T08:20:07;13.90;99.90
51500;DHT22;39101;53.478;6.158;2023-05-06T08:22:33;14.10;99.90
51500;DHT22;39101;53.478;6.158;2023-05-06T08:24:59;14.10;99.90
51500;DHT22;39101;53.478;6.158;2023-05-06T08:27:25;14.10;99.90
51500;DHT22;39101;53.478;6.158;2023-05-06T08:29:51;14.10;99.90
51500;DHT22;39101;53.478;6.158;2023-05-06T08:32:17;14.40;99.90
51500;DHT22;39101;53.478;6.158;2023-05-06T08:34:42;14.30;99.90
51500;DHT22;39101;53.478;6.158;2023-05-06T08:37:08;14.30;99.90
51500;DHT22;39101;53.478;6.158;2023-05-06T08:39:33;14.40;99.90
51500;DHT22;39101;53.478;6.158;2023-05-06T08:42:00;14.60;99.90
51500;DHT22;39101;53.478;6.158;2023-05-06T08:44:27;14.50;99.90
51500;DHT22;39101;53.478;6.158;2023-05-06T08:46:53;14.40;99.90
51500;DHT22;39101;53.478;6.158;2023-05-06T08:49:20;14.40;99.90
51500;DHT22;39101;53.478;6.158;2023-05-06T08:51:48;14.70;99.90
51500;DHT22;39101;53.478;6.158;2023-05-06T08:54:16;14.80;99.90
51500;DHT22;39101;53.478;6.158;2023-05-06T08:56:46;14.70;99.90
51500;DHT22;39101;53.478;6.158;2023-05-06T08:59:13;14.70;99.90
51500;DHT22;39101;53.478;6.158;2023-05-06T09:01:39;14.70;99.90
51500;DHT22;39101;53.478;6.158;2023-05-06T09:04:05;14.90;99.90
51500;DHT22;39101;53.478;6.158;2023-05-06T09:06:34;14.90;99.90
51500;DHT22;39101;53.478;6.158;2023-05-06T09:09:00;14.90;99.90
51500;DHT22;39101;53.478;6.158;2023-05-06T09:11:27;15.00;99.90
51500;DHT22;39101;53.478;6.158;2023-05-06T09:14:11;14.90;99.90
51500;DHT22;39101;53.478;6.158;2023-05-06T09:16:39;15.10;99.90
51500;DHT22;39101;53.478;6.158;2023-05-06T09:19:05;15.10;99.90
51500;DHT22;39101;53.478;6.158;2023-05-06T09:21:39;15.10;99.90
51500;DHT22;39101;53.478;6.158;2023-05-06T09:24:06;15.20;99.90
51500;DHT22;39101;53.478;6.158;2023-05-06T09:26:34;15.30;99.90
51500;DHT22;39101;53.478;6.158;2023-05-06T09:29:01;15.20;99.90
51500;DHT22;39101;53.478;6.158;2023-05-06T09:31:27;15.50;99.90
51500;DHT22;39101;53.478;6.158;2023-05-06T09:33:54;15.40;99.90
51500;DHT22;39101;53.478;6.158;2023-05-06T09:36:21;15.60;99.90
51500;DHT22;39101;53.478;6.158;2023-05-06T09:38:48;15.60;99.90
51500;DHT22;39101;53.478;6.158;2023-05-06T09:41:14;15.70;99.90
51500;DHT22;39101;53.478;6.158;2023-05-06T09:43:44;15.80;99.90
51500;DHT22;39101;53.478;6.158;2023-05-06T09:46:11;15.90;99.90
51500;DHT22;39101;53.478;6.158;2023-05-06T09:48:38;16.10;99.90
51500;DHT22;39101;53.478;6.158;2023-05-06T09:51:04;16.20;99.90
51500;DHT22;39101;53.478;6.158;2023-05-06T09:53:36;16.10;99.90
51500;DHT22;39101;53.478;6.158;2023-05-06T09:56:06;16.10;99.90
51500;DHT22;39101;53.478;6.158;2023-05-06T09:58:33;16.20;99.90
51500;DHT22;39101;53.478;6.158;2023-05-06T10:00:59;16.20;99.90
51500;DHT22;39101;53.478;6.158;2023-05-06T10:03:26;16.30;99.90
51500;DHT22;39101;53.478;6.158;2023-05-06T10:05:55;16.30;99.90
51500;DHT22;39101;53.478;6.158;2023-05-06T10:08:25;16.60;99.90
51500;DHT22;39101;53.478;6.158;2023-05-06T10:10:51;16.40;99.90
51500;DHT22;39101;53.478;6.158;2023-05-06T10:13:19;16.70;99.90
51500;DHT22;39101;53.478;6.158;2023-05-06T10:15:47;16.80;99.90
51500;DHT22;39101;53.478;6.158;2023-05-06T10:18:20;16.70;99.90
51500;DHT22;39101;53.478;6.158;2023-05-06T10:20:48;17.10;99.90
51500;DHT22;39101;53.478;6.158;2023-05-06T10:23:23;17.10;99.90
51500;DHT22;39101;53.478;6.158;2023-05-06T10:25:54;17.30;99.90
51500;DHT22;39101;53.478;6.158;2023-05-06T10:28:21;17.10;99.90
51500;DHT22;39101;53.478;6.158;2023-05-06T10:30:48;17.20;99.90
51500;DHT22;39101;53.478;6.158;2023-05-06T10:33:15;17.00;99.90
51500;DHT22;39101;53.478;6.158;2023-05-06T10:38:34;16.60;99.90
51500;DHT22;39101;53.478;6.158;2023-05-06T10:41:02;16.50;99.90
51500;DHT22;39101;53.478;6.158;2023-05-06T10:46:05;16.30;99.90
51500;DHT22;39101;53.478;6.158;2023-05-06T10:48:31;16.30;99.90
51500;DHT22;39101;53.478;6.158;2023-05-06T10:54:07;16.00;99.90
51500;DHT22;39101;53.478;6.158;2023-05-06T10:56:38;15.80;99.90
51500;DHT22;39101;53.478;6.158;2023-05-06T10:59:11;15.70;99.90
51500;DHT22;39101;53.478;6.158;2023-05-06T11:01:39;15.70;99.90
51500;DHT22;39101;53.478;6.158;2023-05-06T11:04:12;15.40;99.90
51500;DHT22;39101;53.478;6.158;2023-05-06T11:06:45;15.50;99.90
51500;DHT22;39101;53.478;6.158;2023-05-06T11:14:33;15.20;99.90
51500;DHT22;39101;53.478;6.158;2023-05-06T11:17:06;15.20;99.90
51500;DHT22;39101;53.478;6.158;2023-05-06T11:19:37;15.10;99.90
51500;DHT22;39101;53.478;6.158;2023-05-06T11:22:04;15.20;99.90
51500;DHT22;39101;53.478;6.158;2023-05-06T11:24:41;15.20;99.90
51500;DHT22;39101;53.478;6.158;2023-05-06T11:27:07;15.20;99.90
51500;DHT22;39101;53.478;6.158;2023-05-06T11:29:34;15.00;99.90
51500;DHT22;39101;53.478;6.158;2023-05-06T11:32:00;14.90;99.90
51500;DHT22;39101;53.478;6.158;2023-05-06T11:34:27;14.90;99.90
51500;DHT22;39101;53.478;6.158;2023-05-06T11:37:04;14.90;99.90
51500;DHT22;39101;53.478;6.158;2023-05-06T11:39:32;14.60;99.90
51500;DHT22;39101;53.478;6.158;2023-05-06T11:42:03;14.50;99.90
51500;DHT22;39101;53.478;6.158;2023-05-06T11:44:37;14.60;99.90
51500;DHT22;39101;53.478;6.158;2023-05-06T11:47:07;14.40;99.90
51500;DHT22;39101;53.478;6.158;2023-05-06T11:49:40;14.30;99.90
51500;DHT22;39101;53.478;6.158;2023-05-06T11:52:11;14.40;99.90
51500;DHT22;39101;53.478;6.158;2023-05-06T11:54:41;14.20;99.90
51500;DHT22;39101;53.478;6.158;2023-05-06T11:57:07;14.30;99.90
51500;DHT22;39101;53.478;6.158;2023-05-06T11:59:36;14.20;99.90
51500;DHT22;39101;53.478;6.158;2023-05-06T12:02:04;14.20;99.90
51500;DHT22;39101;53.478;6.158;2023-05-06T12:07:08;13.90;99.90
51500;DHT22;39101;53.478;6.158;2023-05-06T12:09:34;14.10;99.90
51500;DHT22;39101;53.478;6.158;2023-05-06T12:12:02;14.00;99.90
51500;DHT22;39101;53.478;6.158;2023-05-06T12:14:28;14.10;99.90
51500;DHT22;39101;53.478;6.158;2023-05-06T12:16:54;14.10;99.90
51500;DHT22;39101;53.478;6.158;2023-05-06T12:19:21;14.10;99.90
51500;DHT22;39101;53.478;6.158;2023-05-06T12:21:46;14.00;99.90
51500;DHT22;39101;53.478;6.158;2023-05-06T12:24:12;13.80;99.90
51500;DHT22;39101;53.478;6.158;2023-05-06T12:26:46;13.80;99.90
51500;DHT22;39101;53.478;6.158;2023-05-06T12:29:14;14.00;99.90
51500;DHT22;39101;53.478;6.158;2023-05-06T12:31:44;13.90;99.90
51500;DHT22;39101;53.478;6.158;2023-05-06T12:34:16;13.70;99.90
51500;DHT22;39101;53.478;6.158;2023-05-06T12:36:45;13.70;99.90
51500;DHT22;39101;53.478;6.158;2023-05-06T12:39:11;13.90;99.90
51500;DHT22;39101;53.478;6.158;2023-05-06T12:41:42;13.80;99.90
51500;DHT22;39101;53.478;6.158;2023-05-06T12:44:33;13.90;99.90
51500;DHT22;39101;53.478;6.158;2023-05-06T12:47:00;14.10;99.90
51500;DHT22;39101;53.478;6.158;2023-05-06T12:49:26;14.00;99.90
51500;DHT22;39101;53.478;6.158;2023-05-06T12:52:09;13.90;99.90
51500;DHT22;39101;53.478;6.158;2023-05-06T12:54:35;14.00;99.90
51500;DHT22;39101;53.478;6.158;2023-05-06T12:57:01;14.00;99.90
51500;DHT22;39101;53.478;6.158;2023-05-06T12:59:27;14.10;99.90
51500;DHT22;39101;53.478;6.158;2023-05-06T13:01:53;14.10;99.90
51500;DHT22;39101;53.478;6.158;2023-05-06T13:04:20;14.10;99.90
51500;DHT22;39101;53.478;6.158;2023-05-06T13:06:45;14.20;99.90
51500;DHT22;39101;53.478;6.158;2023-05-06T13:09:11;14.00;99.90
51500;DHT22;39101;53.478;6.158;2023-05-06T13:11:37;13.90;99.90
51500;DHT22;39101;53.478;6.158;2023-05-06T13:14:02;14.10;99.90
51500;DHT22;39101;53.478;6.158;2023-05-06T13:16:29;14.00;99.90
51500;DHT22;39101;53.478;6.158;2023-05-06T13:18:55;13.90;99.90
51500;DHT22;39101;53.478;6.158;2023-05-06T13:21:21;14.10;99.90
51500;DHT22;39101;53.478;6.158;2023-05-06T13:23:47;14.00;99.90
51500;DHT22;39101;53.478;6.158;2023-05-06T13:26:13;14.10;99.90
51500;DHT22;39101;53.478;6.158;2023-05-06T13:28:39;14.10;99.90
51500;DHT22;39101;53.478;6.158;2023-05-06T13:31:06;14.00;99.90
51500;DHT22;39101;53.478;6.158;2023-05-06T13:33:33;13.90;99.90
51500;DHT22;39101;53.478;6.158;2023-05-06T13:35:59;13.80;99.90
51500;DHT22;39101;53.478;6.158;2023-05-06T13:38:24;13.90;99.90
51500;DHT22;39101;53.478;6.158;2023-05-06T13:40:51;13.90;99.90
51500;DHT22;39101;53.478;6.158;2023-05-06T13:43:18;13.90;99.90
51500;DHT22;39101;53.478;6.158;2023-05-06T13:45:44;13.90;99.90
51500;DHT22;39101;53.478;6.158;2023-05-06T13:48:11;13.70;99.90
51500;DHT22;39101;53.478;6.158;2023-05-06T13:50:37;13.80;99.90
51500;DHT22;39101;53.478;6.158;2023-05-06T13:53:03;13.70;99.90
51500;DHT22;39101;53.478;6.158;2023-05-06T13:55:29;13.70;99.90
51500;DHT22;39101;53.478;6.158;2023-05-06T13:57:55;13.80;99.90
51500;DHT22;39101;53.478;6.158;2023-05-06T14:00:21;13.60;99.90
51500;DHT22;39101;53.478;6.158;2023-05-06T14:02:46;13.90;99.90
51500;DHT22;39101;53.478;6.158;2023-05-06T14:05:12;13.70;99.90
51500;DHT22;39101;53.478;6.158;2023-05-06T14:07:40;13.70;99.90
51500;DHT22;39101;53.478;6.158;2023-05-06T14:10:06;13.90;99.90
51500;DHT22;39101;53.478;6.158;2023-05-06T14:12:32;13.90;99.90
51500;DHT22;39101;53.478;6.158;2023-05-06T14:14:58;14.00;99.90
51500;DHT22;39101;53.478;6.158;2023-05-06T14:17:23;14.10;99.90
51500;DHT22;39101;53.478;6.158;2023-05-06T14:19:49;14.20;99.90
51500;DHT22;39101;53.478;6.158;2023-05-06T14:22:15;14.10;99.90
51500;DHT22;39101;53.478;6.158;2023-05-06T14:24:40;14.20;99.90
51500;DHT22;39101;53.478;6.158;2023-05-06T14:27:06;14.50;99.90
51500;DHT22;39101;53.478;6.158;2023-05-06T14:29:32;14.40;99.90
51500;DHT22;39101;53.478;6.158;2023-05-06T14:31:58;14.80;99.90
51500;DHT22;39101;53.478;6.158;2023-05-06T14:34:23;14.80;99.90
51500;DHT22;39101;53.478;6.158;2023-05-06T14:36:49;15.20;99.90
51500;DHT22;39101;53.478;6.158;2023-05-06T14:39:15;15.30;99.90
51500;DHT22;39101;53.478;6.158;2023-05-06T14:41:40;15.80;99.90
51500;DHT22;39101;53.478;6.158;2023-05-06T14:44:06;15.90;99.90
51500;DHT22;39101;53.478;6.158;2023-05-06T14:46:32;16.40;99.90
51500;DHT22;39101;53.478;6.158;2023-05-06T14:48:57;16.40;99.90
51500;DHT22;39101;53.478;6.158;2023-05-06T14:51:23;16.80;99.90
51500;DHT22;39101;53.478;6.158;2023-05-06T14:53:49;17.10;99.90
51500;DHT22;39101;53.478;6.158;2023-05-06T14:56:14;17.00;99.90
51500;DHT22;39101;53.478;6.158;2023-05-06T14:58:40;17.00;99.90
51500;DHT22;39101;53.478;6.158;2023-05-06T15:01:06;17.20;99.90
51500;DHT22;39101;53.478;6.158;2023-05-06T15:03:31;17.20;99.90
51500;DHT22;39101;53.478;6.158;2023-05-06T15:05:57;17.30;99.90
51500;DHT22;39101;53.478;6.158;2023-05-06T15:08:23;17.20;99.90
51500;DHT22;39101;53.478;6.158;2023-05-06T15:10:48;17.30;99.90
51500;DHT22;39101;53.478;6.158;2023-05-06T15:13:14;17.00;99.90
51500;DHT22;39101;53.478;6.158;2023-05-06T15:15:41;17.10;99.90
51500;DHT22;39101;53.478;6.158;2023-05-06T15:18:06;17.10;99.90
51500;DHT22;39101;53.478;6.158;2023-05-06T15:20:32;16.70;99.90
51500;DHT22;39101;53.478;6.158;2023-05-06T15:22:58;16.70;99.90
51500;DHT22;39101;53.478;6.158;2023-05-06T15:25:23;16.50;99.90
51500;DHT22;39101;53.478;6.158;2023-05-06T15:27:49;16.70;99.90
51500;DHT22;39101;53.478;6.158;2023-05-06T15:30:15;16.50;99.90
51500;DHT22;39101;53.478;6.158;2023-05-06T15:32:41;16.50;99.90
51500;DHT22;39101;53.478;6.158;2023-05-06T15:35:07;16.60;99.90
51500;DHT22;39101;53.478;6.158;2023-05-06T15:37:33;16.60;99.90
51500;DHT22;39101;53.478;6.158;2023-05-06T15:39:59;16.70;99.90
51500;DHT22;39101;53.478;6.158;2023-05-06T15:42:25;16.60;99.90
51500;DHT22;39101;53.478;6.158;2023-05-06T15:44:51;16.50;99.90
51500;DHT22;39101;53.478;6.158;2023-05-06T15:47:18;16.40;99.90
51500;DHT22;39101;53.478;6.158;2023-05-06T15:49:43;16.50;99.90